createdAt,value
2019-04-30T00:01:55.882Z,8.47
2019-04-30T00:04:29.897Z,8.52
2019-04-30T00:06:57.004Z,8.50
2019-04-30T00:09:27.590Z,8.48
2019-04-30T00:12:00.972Z,8.49
2019-04-30T00:14:37.275Z,8.46
2019-04-30T00:16:59.542Z,8.47
2019-04-30T00:19:29.138Z,8.43
2019-04-30T00:22:00.454Z,8.45
2019-04-30T00:24:30.521Z,8.36
2019-04-30T00:27:00.075Z,8.40
2019-04-30T00:29:31.009Z,8.38
2019-04-30T00:32:04.403Z,8.42
2019-04-30T00:34:37.886Z,8.34
2019-04-30T00:37:07.372Z,8.32
2019-04-30T00:39:35.581Z,8.29
2019-04-30T00:42:05.208Z,8.25
2019-04-30T00:44:35.652Z,8.30
2019-04-30T00:47:08.263Z,8.29
2019-04-30T00:49:37.975Z,8.33
2019-04-30T00:52:07.538Z,8.33
2019-04-30T00:54:37.127Z,8.32
2019-04-30T00:57:07.640Z,8.30
2019-04-30T00:59:39.844Z,8.31
2019-04-30T01:02:10.734Z,8.33
2019-04-30T01:04:42.003Z,8.33
2019-04-30T01:07:15.424Z,8.28
2019-04-30T01:09:49.521Z,8.26
2019-04-30T01:12:27.691Z,8.28
2019-04-30T01:14:49.800Z,8.28
2019-04-30T01:17:19.638Z,8.33
2019-04-30T01:19:51.154Z,8.26
2019-04-30T01:22:27.750Z,8.20
2019-04-30T01:24:52.380Z,8.20
2019-04-30T01:27:21.976Z,8.14
2019-04-30T01:29:51.670Z,8.13
2019-04-30T01:32:21.342Z,8.14
2019-04-30T01:34:53.853Z,8.11
2019-04-30T01:37:28.652Z,8.10
2019-04-30T01:39:53.285Z,8.11
2019-04-30T01:42:22.888Z,8.15
2019-04-30T01:44:53.852Z,8.15
2019-04-30T01:47:27.599Z,8.15
2019-04-30T01:49:55.795Z,8.12
2019-04-30T01:52:31.103Z,8.11
2019-04-30T01:54:59.191Z,8.12
2019-04-30T01:57:34.616Z,8.09
2019-04-30T02:00:22.916Z,8.10
2019-04-30T02:02:52.491Z,8.07
2019-04-30T02:05:22.004Z,8.14
2019-04-30T02:07:51.570Z,8.04
2019-04-30T02:10:21.125Z,7.97
2019-04-30T02:12:50.736Z,7.96
2019-04-30T02:15:20.174Z,8.01
2019-04-30T02:17:50.529Z,8.05
2019-04-30T02:20:20.215Z,8.09
2019-04-30T02:22:49.759Z,8.12
2019-04-30T02:25:19.628Z,8.11
2019-04-30T02:27:49.142Z,8.09
2019-04-30T02:30:20.781Z,8.08
2019-04-30T02:32:52.519Z,8.06
2019-04-30T02:35:40.727Z,8.08
2019-04-30T02:38:13.925Z,8.12
2019-04-30T02:40:44.486Z,8.06
2019-04-30T02:43:15.246Z,8.06
2019-04-30T02:45:49.589Z,8.06
2019-04-30T02:48:22.879Z,8.00
2019-04-30T02:50:54.477Z,8.04
2019-04-30T02:53:50.450Z,8.00
2019-04-30T02:56:26.529Z,8.01
2019-04-30T02:58:54.602Z,7.97
2019-04-30T03:01:24.075Z,7.98
2019-04-30T03:03:53.515Z,8.02
2019-04-30T03:06:23.778Z,8.01
2019-04-30T03:08:53.492Z,8.04
2019-04-30T03:11:23.031Z,8.02
2019-04-30T03:13:52.492Z,8.01
2019-04-30T03:16:26.302Z,7.93
2019-04-30T03:19:00.143Z,7.95
2019-04-30T03:21:46.140Z,7.93
2019-04-30T03:24:15.584Z,7.98
2019-04-30T03:26:45.009Z,8.04
2019-04-30T03:29:14.463Z,8.04
2019-04-30T03:31:45.662Z,8.08
2019-04-30T03:34:19.598Z,8.09
2019-04-30T03:36:46.266Z,8.10
2019-04-30T03:39:15.798Z,8.08
2019-04-30T03:41:45.240Z,8.04
2019-04-30T03:44:21.590Z,8.02
2019-04-30T03:46:45.919Z,8.04
2019-04-30T03:49:15.386Z,8.08
2019-04-30T03:51:44.822Z,8.08
2019-04-30T03:54:14.273Z,8.04
2019-04-30T03:56:44.171Z,8.06
2019-04-30T03:59:13.740Z,8.09
2019-04-30T04:01:50.885Z,8.07
2019-04-30T04:04:39.495Z,8.11
2019-04-30T04:07:12.766Z,8.05
2019-04-30T04:09:46.711Z,8.05
2019-04-30T04:12:23.492Z,8.06
2019-04-30T04:14:53.262Z,8.04
2019-04-30T04:17:23.120Z,7.98
2019-04-30T04:19:52.589Z,8.03
2019-04-30T04:22:22.158Z,8.03
2019-04-30T04:24:51.801Z,8.05
2019-04-30T04:27:21.226Z,8.03
2019-04-30T04:29:51.333Z,8.02
2019-04-30T04:32:24.358Z,8.04
2019-04-30T04:34:52.174Z,8.02
2019-04-30T04:37:21.620Z,8.03
2019-04-30T04:39:51.142Z,8.07
2019-04-30T04:42:20.579Z,8.10
2019-04-30T04:44:50.545Z,8.11
2019-04-30T04:47:20.475Z,8.08
2019-04-30T04:49:53.206Z,8.11
2019-04-30T04:52:22.037Z,8.05
2019-04-30T04:54:51.842Z,7.98
2019-04-30T04:57:23.041Z,7.97
2019-04-30T04:59:52.747Z,8.00
2019-04-30T05:02:32.511Z,7.95
2019-04-30T05:05:00.647Z,7.95
2019-04-30T05:07:30.102Z,7.96
2019-04-30T05:10:00.953Z,7.97
2019-04-30T05:12:30.838Z,7.95
2019-04-30T05:15:00.292Z,7.94
2019-04-30T05:17:32.084Z,7.97
2019-04-30T05:20:00.922Z,7.94
2019-04-30T05:22:30.349Z,7.94
2019-04-30T05:25:00.087Z,7.93
2019-04-30T05:27:30.300Z,7.99
2019-04-30T05:29:59.937Z,8.03
2019-04-30T05:32:29.413Z,8.10
2019-04-30T05:34:58.883Z,8.10
2019-04-30T05:37:28.489Z,8.08
2019-04-30T05:39:58.834Z,8.07
2019-04-30T05:42:29.140Z,8.04
2019-04-30T05:44:59.267Z,8.07
2019-04-30T05:47:29.226Z,8.05
2019-04-30T05:49:58.865Z,8.03
2019-04-30T05:52:29.510Z,7.99
2019-04-30T05:55:00.172Z,8.03
2019-04-30T05:57:29.747Z,7.99
2019-04-30T05:59:59.272Z,7.99
2019-04-30T06:02:33.645Z,8.02
2019-04-30T06:04:59.935Z,8.04
2019-04-30T06:07:29.997Z,8.13
2019-04-30T06:10:11.109Z,8.10
2019-04-30T06:12:51.438Z,8.20
2019-04-30T06:15:39.093Z,8.27
2019-04-30T06:18:13.535Z,8.30
2019-04-30T06:20:41.459Z,8.37
2019-04-30T06:23:11.007Z,8.32
2019-04-30T06:25:55.309Z,8.33
2019-04-30T06:28:12.769Z,8.40
2019-04-30T06:30:42.297Z,8.40
2019-04-30T06:33:11.950Z,8.34
2019-04-30T06:35:41.415Z,8.33
2019-04-30T06:38:10.966Z,8.30
2019-04-30T06:40:41.028Z,8.43
2019-04-30T06:43:10.823Z,8.52
2019-04-30T06:45:40.827Z,8.60
2019-04-30T06:48:12.250Z,8.61
2019-04-30T06:50:41.696Z,8.64
2019-04-30T06:53:11.192Z,8.64
2019-04-30T06:55:40.632Z,8.66
2019-04-30T06:58:15.042Z,8.83
2019-04-30T07:00:41.622Z,8.79
2019-04-30T07:03:11.076Z,8.79
2019-04-30T07:05:40.645Z,8.59
2019-04-30T07:08:38.983Z,8.69
2019-04-30T07:11:20.737Z,8.83
2019-04-30T07:13:52.347Z,8.92
2019-04-30T07:16:21.993Z,8.97
2019-04-30T07:18:51.488Z,9.00
2019-04-30T07:21:21.036Z,9.01
2019-04-30T07:23:50.476Z,9.06
2019-04-30T07:26:24.480Z,8.92
2019-04-30T07:28:54.828Z,8.90
2019-04-30T07:31:22.751Z,9.12
2019-04-30T07:33:54.009Z,9.06
2019-04-30T07:36:42.396Z,9.20
2019-04-30T07:38:56.922Z,9.23
2019-04-30T07:41:30.890Z,9.12
2019-04-30T07:43:59.347Z,9.28
2019-04-30T07:46:29.980Z,9.24
2019-04-30T07:49:00.081Z,9.29
2019-04-30T07:51:32.170Z,9.35
2019-04-30T07:54:01.088Z,9.40
2019-04-30T07:56:37.330Z,9.45
2019-04-30T07:59:02.900Z,9.40
2019-04-30T08:01:34.115Z,9.41
2019-04-30T08:04:21.852Z,9.34
2019-04-30T08:06:51.325Z,9.31
2019-04-30T08:09:22.244Z,9.21
2019-04-30T08:11:51.790Z,9.26
2019-04-30T08:14:23.067Z,9.32
2019-04-30T08:16:52.763Z,9.48
2019-04-30T08:19:22.231Z,9.68
2019-04-30T08:21:51.644Z,9.77
2019-04-30T08:24:21.083Z,9.94
2019-04-30T08:26:51.876Z,9.84
2019-04-30T08:29:21.303Z,9.54
2019-04-30T08:31:50.776Z,9.86
2019-04-30T08:34:20.296Z,9.87
2019-04-30T08:36:49.740Z,9.87
2019-04-30T08:39:19.733Z,10.11
2019-04-30T08:41:49.476Z,10.12
2019-04-30T08:44:20.837Z,10.23
2019-04-30T08:46:51.688Z,10.25
2019-04-30T08:49:21.430Z,10.28
2019-04-30T08:51:51.264Z,10.16
2019-04-30T08:54:21.170Z,10.29
2019-04-30T08:56:50.778Z,10.18
2019-04-30T08:59:20.269Z,10.43
2019-04-30T09:01:49.820Z,10.35
2019-04-30T09:04:20.131Z,10.36
2019-04-30T09:06:49.816Z,10.37
2019-04-30T09:09:19.311Z,10.75
2019-04-30T09:11:52.912Z,10.83
2019-04-30T09:14:19.973Z,10.77
2019-04-30T09:16:51.356Z,11.19
2019-04-30T09:19:21.273Z,11.65
2019-04-30T09:21:50.854Z,11.62
2019-04-30T09:24:20.327Z,11.35
2019-04-30T09:26:49.830Z,11.19
2019-04-30T09:29:19.292Z,11.38
2019-04-30T09:31:49.299Z,11.36
2019-04-30T09:34:21.144Z,11.44
2019-04-30T09:36:50.043Z,11.54
2019-04-30T09:39:20.652Z,11.36
2019-04-30T09:41:50.662Z,11.43
2019-04-30T09:44:20.112Z,11.74
2019-04-30T09:46:49.576Z,11.82
2019-04-30T09:49:19.516Z,12.29
2019-04-30T09:51:49.814Z,12.81
2019-04-30T09:54:20.392Z,12.86
2019-04-30T09:56:52.620Z,12.68
2019-04-30T09:59:21.485Z,12.64
2019-04-30T10:01:50.942Z,12.62
2019-04-30T10:04:21.365Z,13.14
2019-04-30T10:06:51.302Z,12.70
2019-04-30T10:09:20.849Z,12.17
2019-04-30T10:11:59.572Z,11.88
2019-04-30T10:14:30.967Z,12.46
2019-04-30T10:17:02.143Z,12.76
2019-04-30T10:19:31.681Z,12.63
2019-04-30T10:22:01.164Z,12.33
2019-04-30T10:24:32.108Z,12.71
2019-04-30T10:27:02.498Z,13.51
2019-04-30T10:29:32.000Z,14.01
2019-04-30T10:32:01.705Z,13.64
2019-04-30T10:34:31.227Z,13.05
2019-04-30T10:37:02.964Z,12.81
2019-04-30T10:39:32.252Z,13.22
2019-04-30T10:42:02.202Z,13.20
2019-04-30T10:44:31.776Z,12.91
2019-04-30T10:47:01.250Z,12.65
2019-04-30T10:49:30.672Z,12.47
2019-04-30T10:52:01.170Z,13.26
2019-04-30T10:54:30.703Z,13.61
2019-04-30T10:57:00.707Z,13.18
2019-04-30T10:59:30.492Z,12.51
2019-04-30T11:01:59.950Z,12.71
2019-04-30T11:04:29.519Z,12.26
2019-04-30T11:07:00.551Z,12.12
2019-04-30T11:09:31.002Z,12.00
2019-04-30T11:12:02.992Z,11.91
2019-04-30T11:14:32.232Z,12.00
2019-04-30T11:17:01.950Z,11.83
2019-04-30T11:19:31.798Z,12.29
2019-04-30T11:22:01.644Z,12.65
2019-04-30T11:24:38.070Z,12.85
2019-04-30T11:27:03.204Z,12.95
2019-04-30T11:29:33.153Z,12.52
2019-04-30T11:32:07.737Z,12.32
2019-04-30T11:34:37.355Z,12.30
2019-04-30T11:37:06.869Z,12.24
2019-04-30T11:39:36.370Z,12.20
2019-04-30T11:42:06.167Z,12.31
2019-04-30T11:44:40.044Z,12.43
2019-04-30T11:47:20.228Z,12.19
2019-04-30T11:49:49.720Z,12.37
2019-04-30T11:52:19.324Z,12.39
2019-04-30T11:54:53.881Z,12.70
2019-04-30T11:57:20.090Z,12.66
2019-04-30T11:59:51.079Z,12.85
2019-04-30T12:02:22.397Z,12.60
2019-04-30T12:04:51.990Z,11.82
2019-04-30T12:07:25.786Z,11.91
2019-04-30T12:10:16.351Z,12.63
2019-04-30T12:12:45.870Z,12.94
2019-04-30T12:15:15.455Z,12.79
2019-04-30T12:17:44.911Z,12.59
2019-04-30T12:20:14.676Z,12.61
2019-04-30T12:22:44.130Z,13.02
2019-04-30T12:25:13.892Z,12.70
2019-04-30T12:27:43.357Z,12.52
2019-04-30T12:30:14.915Z,12.84
2019-04-30T12:32:44.377Z,13.32
2019-04-30T12:35:14.214Z,13.09
2019-04-30T12:37:43.807Z,13.11
2019-04-30T12:40:25.799Z,13.33
2019-04-30T12:42:44.931Z,13.60
2019-04-30T12:45:14.560Z,13.17
2019-04-30T12:47:45.656Z,13.83
2019-04-30T12:50:19.414Z,13.93
2019-04-30T12:52:56.087Z,13.53
2019-04-30T12:55:34.932Z,13.27
2019-04-30T12:58:04.971Z,13.45
2019-04-30T13:00:34.922Z,13.57
2019-04-30T13:03:04.524Z,13.14
2019-04-30T13:05:34.071Z,12.98
2019-04-30T13:08:04.623Z,12.65
2019-04-30T13:10:34.938Z,12.64
2019-04-30T13:13:05.245Z,13.76
2019-04-30T13:15:35.050Z,12.90
2019-04-30T13:18:04.711Z,13.04
2019-04-30T13:20:34.345Z,13.23
2019-04-30T13:23:04.094Z,13.33
2019-04-30T13:25:35.499Z,13.63
2019-04-30T13:28:06.401Z,12.82
2019-04-30T13:30:36.355Z,13.41
2019-04-30T13:33:25.495Z,12.83
2019-04-30T13:35:54.918Z,13.00
2019-04-30T13:38:32.286Z,12.67
2019-04-30T13:41:03.564Z,12.42
2019-04-30T13:43:51.375Z,12.75
2019-04-30T13:46:20.806Z,12.77
2019-04-30T13:48:50.288Z,12.68
2019-04-30T13:51:19.706Z,13.01
2019-04-30T13:53:49.306Z,14.18
2019-04-30T13:56:20.275Z,13.84
2019-04-30T13:58:50.379Z,13.92
2019-04-30T14:01:21.389Z,13.17
2019-04-30T14:03:52.831Z,13.03
2019-04-30T14:06:23.905Z,12.97
2019-04-30T14:08:55.070Z,12.77
2019-04-30T14:11:24.555Z,12.95
2019-04-30T14:13:54.112Z,13.04
2019-04-30T14:16:23.654Z,12.74
2019-04-30T14:18:53.237Z,12.64
2019-04-30T14:21:32.200Z,12.52
2019-04-30T14:23:54.020Z,12.66
2019-04-30T14:26:23.734Z,12.38
2019-04-30T14:28:53.194Z,12.57
2019-04-30T14:31:22.718Z,12.35
2019-04-30T14:33:52.164Z,12.40
2019-04-30T14:36:21.681Z,12.40
2019-04-30T14:38:51.140Z,12.37
2019-04-30T14:41:20.947Z,12.49
2019-04-30T14:44:09.413Z,12.33
2019-04-30T14:46:44.026Z,12.77
2019-04-30T14:49:28.335Z,12.39
2019-04-30T14:51:59.576Z,12.43
2019-04-30T14:54:50.185Z,12.42
2019-04-30T14:57:36.176Z,11.85
2019-04-30T15:00:25.314Z,12.13
2019-04-30T15:02:58.515Z,12.24
2019-04-30T15:05:38.543Z,12.07
2019-04-30T15:08:00.847Z,11.73
2019-04-30T15:10:30.629Z,11.49
2019-04-30T15:13:00.251Z,11.31
2019-04-30T15:15:31.284Z,11.37
2019-04-30T15:18:00.800Z,11.53
2019-04-30T15:20:30.253Z,11.56
2019-04-30T15:23:18.927Z,11.55
2019-04-30T15:25:44.863Z,11.49
2019-04-30T15:28:14.334Z,11.60
2019-04-30T15:30:43.968Z,11.17
2019-04-30T15:33:35.005Z,11.23
2019-04-30T15:36:05.842Z,11.12
2019-04-30T15:38:54.842Z,11.30
2019-04-30T15:41:24.923Z,11.29
2019-04-30T15:43:55.959Z,11.22
2019-04-30T15:46:25.660Z,11.25
2019-04-30T15:48:55.187Z,11.25
2019-04-30T15:51:24.753Z,11.06
2019-04-30T15:53:54.282Z,11.15
2019-04-30T15:56:34.420Z,11.07
2019-04-30T15:59:13.432Z,11.03
2019-04-30T16:01:47.577Z,10.84
2019-04-30T16:04:19.694Z,11.00
2019-04-30T16:06:49.363Z,10.79
2019-04-30T16:09:32.814Z,10.64
2019-04-30T16:12:09.673Z,10.58
2019-04-30T16:14:41.012Z,10.49
2019-04-30T16:17:12.124Z,10.41
2019-04-30T16:19:41.601Z,10.38
2019-04-30T16:22:12.706Z,10.36
2019-04-30T16:24:43.729Z,10.14
2019-04-30T16:27:13.265Z,10.25
2019-04-30T16:29:45.470Z,10.25
2019-04-30T16:32:15.596Z,10.24
2019-04-30T16:34:45.187Z,10.16
2019-04-30T16:37:14.784Z,10.26
2019-04-30T16:39:44.265Z,10.08
2019-04-30T16:42:13.694Z,10.02
2019-04-30T16:44:43.235Z,10.14
2019-04-30T16:47:16.510Z,9.97
2019-04-30T16:49:43.823Z,9.96
2019-04-30T16:52:13.276Z,9.86
2019-04-30T16:54:42.719Z,9.76
2019-04-30T16:57:12.237Z,9.93
2019-04-30T16:59:42.457Z,9.83
2019-04-30T17:02:13.219Z,9.81
2019-04-30T17:04:44.391Z,9.65
2019-04-30T17:07:18.788Z,9.59
2019-04-30T17:09:51.020Z,9.64
2019-04-30T17:12:22.969Z,9.62
2019-04-30T17:15:10.482Z,9.50
2019-04-30T17:17:40.691Z,9.49
2019-04-30T17:20:10.584Z,9.50
2019-04-30T17:22:40.005Z,9.47
2019-04-30T17:25:09.788Z,9.52
2019-04-30T17:27:39.359Z,9.53
2019-04-30T17:30:11.084Z,9.56
2019-04-30T17:32:40.668Z,9.41
2019-04-30T17:35:10.552Z,9.37
2019-04-30T17:37:39.966Z,9.35
2019-04-30T17:40:09.960Z,9.28
2019-04-30T17:42:39.563Z,9.19
2019-04-30T17:45:10.785Z,9.24
2019-04-30T17:47:40.200Z,9.27
2019-04-30T17:50:10.389Z,9.30
2019-04-30T17:52:39.801Z,9.24
2019-04-30T17:55:09.937Z,9.33
2019-04-30T17:57:40.289Z,9.36
2019-04-30T18:00:18.856Z,9.38
2019-04-30T18:02:43.440Z,9.40
2019-04-30T18:05:13.041Z,9.34
2019-04-30T18:07:42.549Z,9.35
2019-04-30T18:10:14.666Z,9.35
2019-04-30T18:12:44.227Z,9.33
2019-04-30T18:15:18.914Z,9.30
2019-04-30T18:18:05.247Z,9.36
2019-04-30T18:20:39.380Z,9.35
2019-04-30T18:23:27.063Z,9.38
2019-04-30T18:26:05.789Z,9.30
2019-04-30T18:28:35.281Z,9.36
2019-04-30T18:31:05.639Z,9.33
2019-04-30T18:33:35.468Z,9.33
2019-04-30T18:36:05.086Z,9.19
2019-04-30T18:38:34.547Z,9.26
2019-04-30T18:41:04.014Z,9.19
2019-04-30T18:43:33.581Z,9.19
2019-04-30T18:46:03.083Z,9.24
2019-04-30T18:48:32.534Z,9.28
2019-04-30T18:51:15.974Z,9.28
2019-04-30T18:53:34.863Z,9.30
2019-04-30T18:56:04.383Z,9.28
2019-04-30T18:58:39.956Z,9.28
2019-04-30T19:01:05.473Z,9.18
2019-04-30T19:03:35.200Z,9.25
2019-04-30T19:06:06.419Z,9.23
2019-04-30T19:08:39.545Z,9.20
2019-04-30T19:11:29.944Z,9.19
2019-04-30T19:14:16.474Z,9.16
2019-04-30T19:16:56.482Z,9.14
2019-04-30T19:19:30.306Z,9.12
2019-04-30T19:21:59.807Z,9.17
2019-04-30T19:24:29.377Z,9.16
2019-04-30T19:26:58.952Z,9.12
2019-04-30T19:29:29.259Z,9.08
2019-04-30T19:31:59.444Z,9.09
2019-04-30T19:34:31.515Z,9.09
2019-04-30T19:37:00.146Z,9.13
2019-04-30T19:39:32.356Z,9.11
2019-04-30T19:42:01.106Z,9.11
2019-04-30T19:44:30.774Z,9.12
2019-04-30T19:47:00.204Z,9.12
2019-04-30T19:49:29.622Z,9.03
2019-04-30T19:52:07.587Z,8.99
2019-04-30T19:54:30.323Z,9.00
2019-04-30T19:57:00.040Z,8.99
2019-04-30T19:59:31.014Z,9.06
2019-04-30T20:02:00.551Z,8.98
2019-04-30T20:04:35.657Z,9.03
2019-04-30T20:07:01.443Z,9.05
2019-04-30T20:09:30.862Z,8.90
2019-04-30T20:12:00.312Z,8.95
2019-04-30T20:14:29.731Z,8.96
2019-04-30T20:16:59.286Z,9.00
2019-04-30T20:19:30.679Z,9.02
2019-04-30T20:22:00.290Z,8.98
2019-04-30T20:24:29.853Z,8.99
2019-04-30T20:27:06.960Z,8.98
2019-04-30T20:29:30.538Z,8.97
2019-04-30T20:32:00.020Z,8.95
2019-04-30T20:34:29.480Z,8.99
2019-04-30T20:37:00.315Z,8.96
2019-04-30T20:39:39.488Z,8.90
2019-04-30T20:42:09.841Z,8.95
2019-04-30T20:44:39.299Z,8.93
2019-04-30T20:47:09.003Z,8.88
2019-04-30T20:49:39.140Z,8.90
2019-04-30T20:52:08.682Z,8.91
2019-04-30T20:54:39.007Z,8.91
2019-04-30T20:57:08.842Z,8.82
2019-04-30T20:59:38.840Z,8.92
2019-04-30T21:02:08.323Z,8.90
2019-04-30T21:04:37.753Z,8.86
2019-04-30T21:07:09.357Z,8.84
2019-04-30T21:09:38.394Z,8.89
2019-04-30T21:12:09.481Z,8.90
2019-04-30T21:14:40.624Z,8.87
2019-04-30T21:17:10.261Z,8.84
2019-04-30T21:19:39.669Z,8.77
2019-04-30T21:22:09.574Z,8.81
2019-04-30T21:24:39.194Z,8.81
2019-04-30T21:27:08.633Z,8.76
2019-04-30T21:29:39.122Z,8.73
2019-04-30T21:32:13.303Z,8.79
2019-04-30T21:34:53.265Z,8.72
2019-04-30T21:37:22.722Z,8.80
2019-04-30T21:39:52.351Z,8.79
2019-04-30T21:42:21.811Z,8.76
2019-04-30T21:44:52.269Z,8.74
2019-04-30T21:47:21.723Z,8.74
2019-04-30T21:49:51.283Z,8.70
2019-04-30T21:52:20.730Z,8.76
2019-04-30T21:54:51.382Z,8.67
2019-04-30T21:57:21.196Z,8.76
2019-04-30T21:59:50.663Z,8.68
2019-04-30T22:02:20.347Z,8.61
2019-04-30T22:04:50.000Z,8.65
2019-04-30T22:07:19.663Z,8.64
2019-04-30T22:09:49.297Z,8.63
2019-04-30T22:12:19.112Z,8.49
2019-04-30T22:14:48.836Z,8.45
2019-04-30T22:17:19.281Z,8.45
2019-04-30T22:19:49.105Z,8.46
2019-04-30T22:22:19.978Z,8.46
2019-04-30T22:24:51.123Z,8.39
2019-04-30T22:27:20.558Z,8.40
2019-04-30T22:29:49.997Z,8.38
2019-04-30T22:32:19.467Z,8.43
2019-04-30T22:34:48.982Z,8.46
2019-04-30T22:37:19.531Z,8.43
2019-04-30T22:40:02.602Z,8.44
2019-04-30T22:42:34.829Z,8.43
2019-04-30T22:45:07.677Z,8.41
2019-04-30T22:47:37.128Z,8.40
2019-04-30T22:50:07.725Z,8.44
2019-04-30T22:52:37.162Z,8.39
2019-04-30T22:55:07.016Z,8.38
2019-04-30T22:57:38.011Z,8.35
2019-04-30T23:00:11.143Z,8.34
2019-04-30T23:02:58.768Z,8.36
2019-04-30T23:05:28.289Z,8.42
2019-04-30T23:07:57.729Z,8.37
2019-04-30T23:10:27.246Z,8.35
2019-04-30T23:12:56.672Z,8.26
2019-04-30T23:15:26.198Z,8.26
2019-04-30T23:17:58.340Z,8.31
2019-04-30T23:20:27.885Z,8.22
2019-04-30T23:22:57.288Z,8.21
2019-04-30T23:25:26.732Z,8.18
2019-04-30T23:27:56.157Z,8.17
2019-04-30T23:30:25.695Z,8.17
2019-04-30T23:32:55.283Z,8.19
2019-04-30T23:35:24.764Z,8.23
2019-04-30T23:37:54.180Z,8.18
2019-04-30T23:40:32.105Z,8.19
2019-04-30T23:43:01.665Z,8.21
2019-04-30T23:45:31.093Z,8.20
2019-04-30T23:48:00.603Z,8.16
2019-04-30T23:50:30.075Z,8.19
2019-04-30T23:52:59.548Z,8.21
2019-04-30T23:55:28.997Z,8.15
2019-04-30T23:57:58.441Z,8.13
